Terminal Aerodrome Forecast
Issued by NWS

Home | Current Version | Previous Version | Graphics & Text | Print | Product List | Glossary On
Versions: 1 2 3 4 5 6 7 8 9 10 11 12 13
000
FTUS43 KBIS 040530
TAFDIK
TAF
KDIK 040530Z 0406/0506 12008KT P6SM FEW080 SCT150 SCT250
     FM041700 12014KT P6SM SCT080 SCT150 BKN250
     FM050300 12009KT P6SM VCTS SCT050CB BKN100 OVC150=

USA.gov is the U.S. government's official web portal to all federal, state and local government web resources and services.